sensor_id;sensor_type;location;lat;lon;timestamp;P1;durP1;ratioP1;P2;durP2;ratioP2
42134;SDS011;28312;43.460;11.810;2022-12-18T00:02:25;3.17;;;2.20;;
42134;SDS011;28312;43.460;11.810;2022-12-18T00:06:30;2.20;;;1.58;;
42134;SDS011;28312;43.460;11.810;2022-12-18T00:10:35;4.95;;;2.10;;
42134;SDS011;28312;43.460;11.810;2022-12-18T00:14:38;3.22;;;1.92;;
42134;SDS011;28312;43.460;11.810;2022-12-18T00:18:42;3.78;;;2.20;;
42134;SDS011;28312;43.460;11.810;2022-12-18T00:22:46;5.25;;;2.70;;
42134;SDS011;28312;43.460;11.810;2022-12-18T00:26:49;3.28;;;2.15;;
42134;SDS011;28312;43.460;11.810;2022-12-18T00:31:00;2.72;;;1.67;;
42134;SDS011;28312;43.460;11.810;2022-12-18T00:35:08;4.30;;;1.73;;
42134;SDS011;28312;43.460;11.810;2022-12-18T00:39:13;2.67;;;1.90;;
42134;SDS011;28312;43.460;11.810;2022-12-18T00:43:19;2.60;;;1.67;;
42134;SDS011;28312;43.460;11.810;2022-12-18T00:47:22;2.78;;;1.40;;
42134;SDS011;28312;43.460;11.810;2022-12-18T00:51:26;2.22;;;1.45;;
42134;SDS011;28312;43.460;11.810;2022-12-18T00:55:29;3.05;;;1.98;;
42134;SDS011;28312;43.460;11.810;2022-12-18T00:59:33;2.65;;;1.63;;
42134;SDS011;28312;43.460;11.810;2022-12-18T01:03:36;2.88;;;1.92;;
42134;SDS011;28312;43.460;11.810;2022-12-18T01:07:42;3.20;;;2.40;;
42134;SDS011;28312;43.460;11.810;2022-12-18T01:11:47;2.60;;;1.52;;
42134;SDS011;28312;43.460;11.810;2022-12-18T01:15:51;3.17;;;1.70;;
42134;SDS011;28312;43.460;11.810;2022-12-18T01:19:55;1.83;;;1.00;;
42134;SDS011;28312;43.460;11.810;2022-12-18T01:23:58;2.38;;;1.38;;
42134;SDS011;28312;43.460;11.810;2022-12-18T01:28:04;2.83;;;1.90;;
42134;SDS011;28312;43.460;11.810;2022-12-18T01:32:07;3.08;;;1.55;;
42134;SDS011;28312;43.460;11.810;2022-12-18T01:36:15;1.70;;;1.10;;
42134;SDS011;28312;43.460;11.810;2022-12-18T01:40:24;2.25;;;1.45;;
42134;SDS011;28312;43.460;11.810;2022-12-18T01:49:10;4.18;;;1.83;;
42134;SDS011;28312;43.460;11.810;2022-12-18T01:57:19;4.95;;;2.58;;
42134;SDS011;28312;43.460;11.810;2022-12-18T02:01:24;1.60;;;1.10;;
42134;SDS011;28312;43.460;11.810;2022-12-18T02:05:44;2.40;;;1.77;;
42134;SDS011;28312;43.460;11.810;2022-12-18T02:14:43;1.77;;;1.13;;
42134;SDS011;28312;43.460;11.810;2022-12-18T02:18:58;4.30;;;2.47;;
42134;SDS011;28312;43.460;11.810;2022-12-18T02:23:31;1.83;;;1.27;;
42134;SDS011;28312;43.460;11.810;2022-12-18T02:28:00;2.70;;;1.65;;
42134;SDS011;28312;43.460;11.810;2022-12-18T02:32:08;3.72;;;2.83;;
42134;SDS011;28312;43.460;11.810;2022-12-18T02:36:18;3.90;;;2.70;;
42134;SDS011;28312;43.460;11.810;2022-12-18T02:40:24;2.87;;;2.13;;
42134;SDS011;28312;43.460;11.810;2022-12-18T02:44:30;6.72;;;2.78;;
42134;SDS011;28312;43.460;11.810;2022-12-18T02:48:35;5.18;;;1.90;;
42134;SDS011;28312;43.460;11.810;2022-12-18T02:56:57;2.25;;;1.52;;
42134;SDS011;28312;43.460;11.810;2022-12-18T03:01:14;3.08;;;2.03;;
42134;SDS011;28312;43.460;11.810;2022-12-18T03:05:28;2.92;;;2.20;;
42134;SDS011;28312;43.460;11.810;2022-12-18T03:09:42;3.63;;;2.58;;
42134;SDS011;28312;43.460;11.810;2022-12-18T03:13:51;3.25;;;1.92;;
42134;SDS011;28312;43.460;11.810;2022-12-18T03:18:02;2.47;;;1.98;;
42134;SDS011;28312;43.460;11.810;2022-12-18T03:22:13;5.35;;;2.13;;
42134;SDS011;28312;43.460;11.810;2022-12-18T03:26:24;4.28;;;2.28;;
42134;SDS011;28312;43.460;11.810;2022-12-18T03:30:34;6.53;;;2.55;;
42134;SDS011;28312;43.460;11.810;2022-12-18T03:34:43;3.42;;;1.73;;
42134;SDS011;28312;43.460;11.810;2022-12-18T03:38:54;1.98;;;1.27;;
42134;SDS011;28312;43.460;11.810;2022-12-18T03:43:08;1.35;;;1.10;;
42134;SDS011;28312;43.460;11.810;2022-12-18T03:52:20;1.47;;;0.97;;
42134;SDS011;28312;43.460;11.810;2022-12-18T03:56:29;2.08;;;1.48;;
42134;SDS011;28312;43.460;11.810;2022-12-18T04:00:35;4.03;;;2.72;;
42134;SDS011;28312;43.460;11.810;2022-12-18T04:04:43;4.35;;;2.70;;
42134;SDS011;28312;43.460;11.810;2022-12-18T04:08:50;2.20;;;1.40;;
42134;SDS011;28312;43.460;11.810;2022-12-18T04:12:58;3.10;;;2.08;;
42134;SDS011;28312;43.460;11.810;2022-12-18T04:17:03;4.03;;;1.27;;
42134;SDS011;28312;43.460;11.810;2022-12-18T04:21:09;2.38;;;1.55;;
42134;SDS011;28312;43.460;11.810;2022-12-18T04:25:15;1.98;;;1.20;;
42134;SDS011;28312;43.460;11.810;2022-12-18T04:29:38;4.38;;;3.20;;
42134;SDS011;28312;43.460;11.810;2022-12-18T04:33:42;3.80;;;2.50;;
42134;SDS011;28312;43.460;11.810;2022-12-18T04:37:48;3.42;;;2.92;;
42134;SDS011;28312;43.460;11.810;2022-12-18T04:41:51;5.75;;;2.40;;
42134;SDS011;28312;43.460;11.810;2022-12-18T04:46:01;2.70;;;1.95;;
42134;SDS011;28312;43.460;11.810;2022-12-18T04:50:09;4.13;;;3.13;;
42134;SDS011;28312;43.460;11.810;2022-12-18T04:54:13;4.05;;;2.90;;
42134;SDS011;28312;43.460;11.810;2022-12-18T04:58:16;3.78;;;2.25;;
42134;SDS011;28312;43.460;11.810;2022-12-18T05:02:19;3.35;;;2.30;;
42134;SDS011;28312;43.460;11.810;2022-12-18T05:06:23;2.72;;;2.05;;
42134;SDS011;28312;43.460;11.810;2022-12-18T05:10:27;3.65;;;2.63;;
42134;SDS011;28312;43.460;11.810;2022-12-18T05:14:38;3.30;;;2.50;;
42134;SDS011;28312;43.460;11.810;2022-12-18T05:18:42;3.45;;;2.30;;
42134;SDS011;28312;43.460;11.810;2022-12-18T05:22:46;3.47;;;2.50;;
42134;SDS011;28312;43.460;11.810;2022-12-18T05:26:50;2.58;;;1.92;;
42134;SDS011;28312;43.460;11.810;2022-12-18T05:30:55;2.88;;;2.35;;
42134;SDS011;28312;43.460;11.810;2022-12-18T05:35:01;2.85;;;1.95;;
42134;SDS011;28312;43.460;11.810;2022-12-18T05:39:05;4.38;;;2.35;;
42134;SDS011;28312;43.460;11.810;2022-12-18T05:43:09;3.10;;;2.20;;
42134;SDS011;28312;43.460;11.810;2022-12-18T05:47:20;2.25;;;1.65;;
42134;SDS011;28312;43.460;11.810;2022-12-18T10:53:50;1.83;;;1.00;;
42134;SDS011;28312;43.460;11.810;2022-12-18T10:58:25;2.67;;;1.05;;
42134;SDS011;28312;43.460;11.810;2022-12-18T11:02:35;1.30;;;0.80;;
42134;SDS011;28312;43.460;11.810;2022-12-18T11:06:54;1.40;;;0.85;;
42134;SDS011;28312;43.460;11.810;2022-12-18T11:11:00;1.25;;;0.82;;
42134;SDS011;28312;43.460;11.810;2022-12-18T11:15:05;1.17;;;0.70;;
42134;SDS011;28312;43.460;11.810;2022-12-18T11:19:37;1.85;;;1.00;;
42134;SDS011;28312;43.460;11.810;2022-12-18T11:23:50;1.13;;;0.73;;
42134;SDS011;28312;43.460;11.810;2022-12-18T11:27:58;2.65;;;0.85;;
42134;SDS011;28312;43.460;11.810;2022-12-18T11:32:13;1.60;;;0.88;;
42134;SDS011;28312;43.460;11.810;2022-12-18T11:36:30;1.77;;;0.70;;
42134;SDS011;28312;43.460;11.810;2022-12-18T11:40:42;1.60;;;0.80;;
42134;SDS011;28312;43.460;11.810;2022-12-18T11:44:54;3.88;;;1.10;;
42134;SDS011;28312;43.460;11.810;2022-12-18T11:49:03;2.00;;;0.80;;
42134;SDS011;28312;43.460;11.810;2022-12-18T11:53:15;1.83;;;0.88;;
42134;SDS011;28312;43.460;11.810;2022-12-18T11:57:25;1.02;;;0.68;;
42134;SDS011;28312;43.460;11.810;2022-12-18T12:01:46;0.98;;;0.60;;
42134;SDS011;28312;43.460;11.810;2022-12-18T12:06:09;1.02;;;0.57;;
42134;SDS011;28312;43.460;11.810;2022-12-18T12:23:48;0.98;;;0.60;;
42134;SDS011;28312;43.460;11.810;2022-12-18T12:37:15;2.33;;;0.82;;
42134;SDS011;28312;43.460;11.810;2022-12-18T12:41:27;1.00;;;0.60;;
42134;SDS011;28312;43.460;11.810;2022-12-18T12:46:16;1.67;;;0.88;;
42134;SDS011;28312;43.460;11.810;2022-12-18T12:50:24;1.15;;;0.70;;
42134;SDS011;28312;43.460;11.810;2022-12-18T12:54:29;1.20;;;0.70;;
42134;SDS011;28312;43.460;11.810;2022-12-18T13:07:00;1.30;;;0.73;;
42134;SDS011;28312;43.460;11.810;2022-12-18T13:11:04;1.40;;;0.60;;
42134;SDS011;28312;43.460;11.810;2022-12-18T13:16:04;1.33;;;0.80;;
42134;SDS011;28312;43.460;11.810;2022-12-18T13:20:13;0.98;;;0.50;;
42134;SDS011;28312;43.460;11.810;2022-12-18T13:24:25;1.30;;;0.60;;
42134;SDS011;28312;43.460;11.810;2022-12-18T13:32:52;0.52;;;0.40;;
42134;SDS011;28312;43.460;11.810;2022-12-18T13:37:41;0.70;;;0.55;;
42134;SDS011;28312;43.460;11.810;2022-12-18T13:41:49;1.30;;;0.70;;
42134;SDS011;28312;43.460;11.810;2022-12-18T13:45:59;1.67;;;0.73;;
42134;SDS011;28312;43.460;11.810;2022-12-18T13:50:09;1.10;;;0.57;;
42134;SDS011;28312;43.460;11.810;2022-12-18T13:54:38;1.27;;;0.50;;
42134;SDS011;28312;43.460;11.810;2022-12-18T13:58:45;0.90;;;0.50;;
42134;SDS011;28312;43.460;11.810;2022-12-18T14:02:49;1.05;;;0.60;;
42134;SDS011;28312;43.460;11.810;2022-12-18T14:11:22;0.90;;;0.50;;
42134;SDS011;28312;43.460;11.810;2022-12-18T14:15:35;1.08;;;0.60;;
42134;SDS011;28312;43.460;11.810;2022-12-18T14:19:48;1.08;;;0.60;;
42134;SDS011;28312;43.460;11.810;2022-12-18T14:24:12;0.90;;;0.50;;
42134;SDS011;28312;43.460;11.810;2022-12-18T14:28:23;0.98;;;0.55;;
42134;SDS011;28312;43.460;11.810;2022-12-18T14:32:28;2.15;;;0.60;;
42134;SDS011;28312;43.460;11.810;2022-12-18T14:36:33;1.15;;;0.47;;
42134;SDS011;28312;43.460;11.810;2022-12-18T14:40:36;0.63;;;0.43;;
42134;SDS011;28312;43.460;11.810;2022-12-18T14:44:42;0.82;;;0.50;;
42134;SDS011;28312;43.460;11.810;2022-12-18T14:53:38;0.95;;;0.60;;
42134;SDS011;28312;43.460;11.810;2022-12-18T14:57:52;0.93;;;0.47;;
42134;SDS011;28312;43.460;11.810;2022-12-18T15:06:32;1.33;;;0.50;;
42134;SDS011;28312;43.460;11.810;2022-12-18T15:10:46;2.67;;;0.60;;
42134;SDS011;28312;43.460;11.810;2022-12-18T15:14:50;1.48;;;0.80;;
42134;SDS011;28312;43.460;11.810;2022-12-18T15:18:56;1.40;;;0.73;;
42134;SDS011;28312;43.460;11.810;2022-12-18T15:23:01;1.65;;;0.75;;
42134;SDS011;28312;43.460;11.810;2022-12-18T15:27:05;1.40;;;0.80;;
42134;SDS011;28312;43.460;11.810;2022-12-18T15:31:30;2.42;;;1.00;;
42134;SDS011;28312;43.460;11.810;2022-12-18T15:35:37;1.70;;;0.82;;
42134;SDS011;28312;43.460;11.810;2022-12-18T15:39:48;1.48;;;1.08;;
42134;SDS011;28312;43.460;11.810;2022-12-18T15:43:51;3.25;;;0.98;;
42134;SDS011;28312;43.460;11.810;2022-12-18T15:47:55;1.75;;;0.90;;
42134;SDS011;28312;43.460;11.810;2022-12-18T15:52:01;1.70;;;1.00;;
42134;SDS011;28312;43.460;11.810;2022-12-18T15:56:09;1.13;;;0.73;;
42134;SDS011;28312;43.460;11.810;2022-12-18T16:00:33;0.68;;;0.60;;
42134;SDS011;28312;43.460;11.810;2022-12-18T16:04:39;1.80;;;0.80;;
42134;SDS011;28312;43.460;11.810;2022-12-18T16:08:43;1.60;;;0.93;;
42134;SDS011;28312;43.460;11.810;2022-12-18T16:12:46;1.80;;;0.98;;
42134;SDS011;28312;43.460;11.810;2022-12-18T16:16:51;3.22;;;1.95;;
42134;SDS011;28312;43.460;11.810;2022-12-18T16:21:00;1.83;;;0.90;;
42134;SDS011;28312;43.460;11.810;2022-12-18T16:25:03;0.40;;;0.40;;
42134;SDS011;28312;43.460;11.810;2022-12-18T16:29:08;1.10;;;0.60;;
42134;SDS011;28312;43.460;11.810;2022-12-18T16:33:12;2.55;;;1.20;;
42134;SDS011;28312;43.460;11.810;2022-12-18T16:37:15;1.85;;;0.95;;
42134;SDS011;28312;43.460;11.810;2022-12-18T16:41:19;1.98;;;1.17;;
42134;SDS011;28312;43.460;11.810;2022-12-18T16:45:35;2.65;;;1.63;;
42134;SDS011;28312;43.460;11.810;2022-12-18T16:49:38;1.95;;;1.20;;
42134;SDS011;28312;43.460;11.810;2022-12-18T16:53:41;1.33;;;0.85;;
42134;SDS011;28312;43.460;11.810;2022-12-18T16:57:47;2.35;;;1.20;;
42134;SDS011;28312;43.460;11.810;2022-12-18T17:01:50;1.70;;;1.10;;
42134;SDS011;28312;43.460;11.810;2022-12-18T17:05:54;2.40;;;1.75;;
42134;SDS011;28312;43.460;11.810;2022-12-18T17:10:03;15.43;;;11.05;;
42134;SDS011;28312;43.460;11.810;2022-12-18T17:14:10;2.55;;;1.80;;
42134;SDS011;28312;43.460;11.810;2022-12-18T17:18:16;6.32;;;5.70;;
42134;SDS011;28312;43.460;11.810;2022-12-18T17:22:21;3.97;;;2.47;;
42134;SDS011;28312;43.460;11.810;2022-12-18T17:26:32;3.88;;;2.03;;
42134;SDS011;28312;43.460;11.810;2022-12-18T17:30:38;6.47;;;5.22;;
42134;SDS011;28312;43.460;11.810;2022-12-18T17:34:43;2.53;;;1.52;;
42134;SDS011;28312;43.460;11.810;2022-12-18T17:38:51;2.63;;;1.67;;
42134;SDS011;28312;43.460;11.810;2022-12-18T17:42:57;4.00;;;3.13;;
42134;SDS011;28312;43.460;11.810;2022-12-18T17:47:02;3.35;;;2.20;;
42134;SDS011;28312;43.460;11.810;2022-12-18T17:51:09;4.53;;;2.83;;
42134;SDS011;28312;43.460;11.810;2022-12-18T17:55:15;2.55;;;1.73;;
42134;SDS011;28312;43.460;11.810;2022-12-18T17:59:20;3.53;;;2.30;;
42134;SDS011;28312;43.460;11.810;2022-12-18T18:03:24;3.78;;;2.47;;
42134;SDS011;28312;43.460;11.810;2022-12-18T18:07:29;3.58;;;2.25;;
42134;SDS011;28312;43.460;11.810;2022-12-18T18:11:34;3.28;;;2.13;;
42134;SDS011;28312;43.460;11.810;2022-12-18T18:15:58;5.63;;;2.90;;
42134;SDS011;28312;43.460;11.810;2022-12-18T18:20:01;3.70;;;2.45;;
42134;SDS011;28312;43.460;11.810;2022-12-18T18:24:06;3.10;;;2.53;;
42134;SDS011;28312;43.460;11.810;2022-12-18T18:28:11;5.07;;;3.25;;
42134;SDS011;28312;43.460;11.810;2022-12-18T18:32:16;4.25;;;3.75;;
42134;SDS011;28312;43.460;11.810;2022-12-18T18:36:20;2.67;;;1.98;;
42134;SDS011;28312;43.460;11.810;2022-12-18T18:40:24;3.58;;;2.90;;
42134;SDS011;28312;43.460;11.810;2022-12-18T18:44:32;4.82;;;2.78;;
42134;SDS011;28312;43.460;11.810;2022-12-18T18:48:36;4.00;;;3.45;;
42134;SDS011;28312;43.460;11.810;2022-12-18T18:52:45;3.78;;;2.92;;
42134;SDS011;28312;43.460;11.810;2022-12-18T18:56:50;11.05;;;8.75;;
42134;SDS011;28312;43.460;11.810;2022-12-18T19:01:16;7.30;;;4.85;;
42134;SDS011;28312;43.460;11.810;2022-12-18T19:05:21;6.55;;;5.05;;
42134;SDS011;28312;43.460;11.810;2022-12-18T19:09:25;4.20;;;3.58;;
42134;SDS011;28312;43.460;11.810;2022-12-18T19:13:32;13.00;;;11.70;;
42134;SDS011;28312;43.460;11.810;2022-12-18T19:17:36;7.43;;;6.68;;
42134;SDS011;28312;43.460;11.810;2022-12-18T19:21:41;6.20;;;5.00;;
42134;SDS011;28312;43.460;11.810;2022-12-18T19:25:44;4.70;;;4.20;;
42134;SDS011;28312;43.460;11.810;2022-12-18T19:29:48;7.22;;;4.53;;
42134;SDS011;28312;43.460;11.810;2022-12-18T19:33:52;6.63;;;4.38;;
42134;SDS011;28312;43.460;11.810;2022-12-18T19:37:55;6.18;;;4.68;;
42134;SDS011;28312;43.460;11.810;2022-12-18T19:41:59;5.35;;;4.00;;
42134;SDS011;28312;43.460;11.810;2022-12-18T19:46:06;6.85;;;5.45;;
42134;SDS011;28312;43.460;11.810;2022-12-18T19:50:10;6.57;;;5.03;;
42134;SDS011;28312;43.460;11.810;2022-12-18T19:54:13;6.18;;;5.18;;
42134;SDS011;28312;43.460;11.810;2022-12-18T19:58:20;6.45;;;4.90;;
42134;SDS011;28312;43.460;11.810;2022-12-18T20:02:24;6.90;;;5.43;;
42134;SDS011;28312;43.460;11.810;2022-12-18T20:10:47;9.38;;;7.20;;
42134;SDS011;28312;43.460;11.810;2022-12-18T20:14:51;6.63;;;4.53;;
42134;SDS011;28312;43.460;11.810;2022-12-18T20:18:55;6.22;;;4.80;;
42134;SDS011;28312;43.460;11.810;2022-12-18T20:22:58;8.38;;;6.72;;
42134;SDS011;28312;43.460;11.810;2022-12-18T20:27:02;8.73;;;6.72;;
42134;SDS011;28312;43.460;11.810;2022-12-18T20:31:05;6.63;;;5.25;;
42134;SDS011;28312;43.460;11.810;2022-12-18T20:35:14;7.63;;;5.85;;
42134;SDS011;28312;43.460;11.810;2022-12-18T20:39:18;10.27;;;7.35;;
42134;SDS011;28312;43.460;11.810;2022-12-18T20:43:23;4.25;;;2.97;;
42134;SDS011;28312;43.460;11.810;2022-12-18T20:47:27;4.28;;;3.00;;
42134;SDS011;28312;43.460;11.810;2022-12-18T20:51:30;6.72;;;4.65;;
42134;SDS011;28312;43.460;11.810;2022-12-18T20:55:39;4.60;;;4.00;;
42134;SDS011;28312;43.460;11.810;2022-12-18T20:59:44;4.65;;;3.47;;
42134;SDS011;28312;43.460;11.810;2022-12-18T21:03:50;4.43;;;3.53;;
42134;SDS011;28312;43.460;11.810;2022-12-18T21:07:54;8.02;;;6.35;;
42134;SDS011;28312;43.460;11.810;2022-12-18T21:11:57;8.23;;;5.40;;
42134;SDS011;28312;43.460;11.810;2022-12-18T21:16:19;9.25;;;6.57;;
42134;SDS011;28312;43.460;11.810;2022-12-18T21:20:23;10.90;;;7.72;;
42134;SDS011;28312;43.460;11.810;2022-12-18T21:24:26;8.90;;;6.35;;
42134;SDS011;28312;43.460;11.810;2022-12-18T21:28:34;11.95;;;8.50;;
42134;SDS011;28312;43.460;11.810;2022-12-18T21:32:38;8.30;;;7.15;;
42134;SDS011;28312;43.460;11.810;2022-12-18T21:36:41;15.40;;;12.30;;
42134;SDS011;28312;43.460;11.810;2022-12-18T21:40:47;10.18;;;7.57;;
42134;SDS011;28312;43.460;11.810;2022-12-18T21:44:50;6.80;;;6.20;;
42134;SDS011;28312;43.460;11.810;2022-12-18T21:48:54;5.55;;;3.65;;
42134;SDS011;28312;43.460;11.810;2022-12-18T21:52:57;8.48;;;7.68;;
42134;SDS011;28312;43.460;11.810;2022-12-18T21:57:01;10.75;;;8.20;;
42134;SDS011;28312;43.460;11.810;2022-12-18T22:01:06;6.25;;;5.28;;
42134;SDS011;28312;43.460;11.810;2022-12-18T22:05:10;11.23;;;9.80;;
42134;SDS011;28312;43.460;11.810;2022-12-18T22:09:15;4.18;;;3.45;;
42134;SDS011;28312;43.460;11.810;2022-12-18T22:13:21;6.68;;;5.53;;
42134;SDS011;28312;43.460;11.810;2022-12-18T22:17:25;6.20;;;5.22;;
42134;SDS011;28312;43.460;11.810;2022-12-18T22:21:33;6.95;;;5.82;;
42134;SDS011;28312;43.460;11.810;2022-12-18T22:25:38;5.93;;;4.93;;
42134;SDS011;28312;43.460;11.810;2022-12-18T22:29:42;5.22;;;4.13;;
42134;SDS011;28312;43.460;11.810;2022-12-18T22:34:04;4.95;;;4.40;;
42134;SDS011;28312;43.460;11.810;2022-12-18T22:38:08;9.50;;;7.75;;
42134;SDS011;28312;43.460;11.810;2022-12-18T22:42:12;8.45;;;6.57;;
42134;SDS011;28312;43.460;11.810;2022-12-18T22:46:16;5.82;;;4.68;;
42134;SDS011;28312;43.460;11.810;2022-12-18T22:50:27;4.63;;;3.75;;
42134;SDS011;28312;43.460;11.810;2022-12-18T22:54:30;3.88;;;3.38;;
42134;SDS011;28312;43.460;11.810;2022-12-18T22:58:36;5.50;;;4.53;;
42134;SDS011;28312;43.460;11.810;2022-12-18T23:02:40;4.35;;;3.28;;
42134;SDS011;28312;43.460;11.810;2022-12-18T23:06:44;4.25;;;3.22;;
42134;SDS011;28312;43.460;11.810;2022-12-18T23:10:51;5.70;;;4.43;;
42134;SDS011;28312;43.460;11.810;2022-12-18T23:14:55;5.47;;;4.73;;
42134;SDS011;28312;43.460;11.810;2022-12-18T23:18:58;8.52;;;5.60;;
42134;SDS011;28312;43.460;11.810;2022-12-18T23:23:02;10.18;;;3.75;;
42134;SDS011;28312;43.460;11.810;2022-12-18T23:27:05;5.28;;;4.13;;
42134;SDS011;28312;43.460;11.810;2022-12-18T23:35:20;6.38;;;4.57;;
42134;SDS011;28312;43.460;11.810;2022-12-18T23:39:24;5.03;;;3.67;;
42134;SDS011;28312;43.460;11.810;2022-12-18T23:43:31;5.28;;;4.25;;
42134;SDS011;28312;43.460;11.810;2022-12-18T23:47:35;3.85;;;2.88;;
42134;SDS011;28312;43.460;11.810;2022-12-18T23:51:39;5.82;;;4.63;;
42134;SDS011;28312;43.460;11.810;2022-12-18T23:55:44;5.13;;;4.07;;
42134;SDS011;28312;43.460;11.810;2022-12-18T23:59:48;3.58;;;2.97;;
